createdAt,value
2022-10-19T00:01:19.538Z,34.63
2022-10-19T00:06:30.748Z,26.53
2022-10-19T00:09:06.842Z,28.50
2022-10-19T00:11:35.614Z,25.13
2022-10-19T00:14:03.579Z,27.17
2022-10-19T00:16:33.907Z,27.07
2022-10-19T00:19:03.170Z,24.03
2022-10-19T00:21:30.045Z,29.27
2022-10-19T00:23:57.127Z,28.10
2022-10-19T00:26:24.501Z,27.33
2022-10-19T00:28:54.855Z,25.63
2022-10-19T00:31:21.873Z,24.07
2022-10-19T00:33:48.710Z,23.97
2022-10-19T00:36:22.292Z,20.27
2022-10-19T00:38:49.668Z,19.90
2022-10-19T00:41:19.156Z,21.17
2022-10-19T00:43:52.135Z,20.63
2022-10-19T00:46:18.938Z,20.83
2022-10-19T00:48:45.979Z,27.13
2022-10-19T00:51:13.592Z,26.27
2022-10-19T00:53:41.236Z,25.53
2022-10-19T00:56:13.170Z,24.97
2022-10-19T00:58:42.426Z,27.43
2022-10-19T01:01:16.777Z,28.50
2022-10-19T01:03:44.869Z,29.17
2022-10-19T01:06:14.846Z,22.73
2022-10-19T01:08:41.702Z,28.90
2022-10-19T01:11:18.071Z,25.03
2022-10-19T01:14:26.920Z,27.73
2022-10-19T01:17:20.930Z,27.23
2022-10-19T01:20:23.214Z,26.57
2022-10-19T01:23:14.271Z,28.57
2022-10-19T01:26:08.172Z,26.80
2022-10-19T01:28:37.782Z,32.73
2022-10-19T01:31:23.218Z,31.40
2022-10-19T01:34:03.776Z,33.53
2022-10-19T01:36:53.885Z,30.27
2022-10-19T01:39:52.003Z,32.50
2022-10-19T01:42:18.750Z,33.23
2022-10-19T01:44:53.499Z,27.77
2022-10-19T01:47:39.565Z,26.20
2022-10-19T01:50:16.296Z,26.37
2022-10-19T01:52:43.454Z,27.33
2022-10-19T01:55:13.871Z,24.07
2022-10-19T01:57:46.919Z,26.37
2022-10-19T02:00:16.304Z,28.03
2022-10-19T02:03:00.272Z,27.73
2022-10-19T02:05:36.085Z,28.13
2022-10-19T02:08:12.784Z,22.40
2022-10-19T02:10:42.781Z,22.03
2022-10-19T02:13:11.201Z,28.80
2022-10-19T02:15:43.776Z,22.83
2022-10-19T02:18:12.905Z,25.90
2022-10-19T02:20:40.316Z,23.93
2022-10-19T02:23:07.545Z,24.37
2022-10-19T02:25:35.543Z,23.50
2022-10-19T02:28:03.921Z,22.97
2022-10-19T02:30:30.869Z,25.50
2022-10-19T02:32:57.883Z,24.37
2022-10-19T02:35:24.751Z,24.70
2022-10-19T02:37:51.754Z,29.13
2022-10-19T02:40:18.896Z,27.00
2022-10-19T02:42:54.086Z,30.13
2022-10-19T02:45:37.860Z,26.57
2022-10-19T02:48:09.846Z,24.30
2022-10-19T02:50:36.780Z,25.63
2022-10-19T02:53:04.045Z,26.50
2022-10-19T02:55:31.545Z,23.87
2022-10-19T02:57:58.520Z,25.87
2022-10-19T03:00:25.478Z,26.80
2022-10-19T03:02:52.388Z,26.00
2022-10-19T03:05:19.175Z,22.63
2022-10-19T03:07:46.011Z,23.77
2022-10-19T03:10:12.841Z,26.47
2022-10-19T03:12:39.676Z,26.33
2022-10-19T03:15:07.082Z,25.47
2022-10-19T03:17:34.337Z,27.70
2022-10-19T03:20:01.441Z,23.60
2022-10-19T03:22:28.369Z,25.90
2022-10-19T03:24:55.185Z,27.77
2022-10-19T03:27:22.101Z,23.63
2022-10-19T03:29:49.118Z,23.67
2022-10-19T03:32:24.600Z,23.40
2022-10-19T03:34:51.389Z,21.47
2022-10-19T03:37:18.301Z,25.00
2022-10-19T03:39:45.377Z,28.83
2022-10-19T03:42:12.157Z,23.50
2022-10-19T03:44:38.960Z,24.83
2022-10-19T03:47:05.763Z,22.13
2022-10-19T03:49:34.606Z,25.80
2022-10-19T03:52:03.796Z,24.17
2022-10-19T03:54:30.704Z,23.10
2022-10-19T03:57:00.447Z,26.53
2022-10-19T03:59:27.853Z,23.47
2022-10-19T04:01:54.636Z,24.77
2022-10-19T04:04:21.640Z,26.30
2022-10-19T04:06:50.255Z,25.57
2022-10-19T04:09:20.355Z,28.67
2022-10-19T04:11:47.613Z,24.10
2022-10-19T04:14:26.677Z,22.17
2022-10-19T04:17:03.037Z,24.97
2022-10-19T04:19:30.409Z,23.10
2022-10-19T04:21:57.715Z,22.33
2022-10-19T04:24:24.643Z,25.50
2022-10-19T04:26:54.398Z,21.70
2022-10-19T04:29:25.076Z,21.20
2022-10-19T04:31:55.028Z,24.13
2022-10-19T04:34:21.881Z,21.27
2022-10-19T04:36:48.785Z,22.77
2022-10-19T04:39:15.719Z,21.83
2022-10-19T04:41:42.519Z,24.00
2022-10-19T04:44:09.990Z,19.50
2022-10-19T04:46:38.637Z,16.57
2022-10-19T04:49:06.907Z,18.30
2022-10-19T04:51:34.432Z,19.23
2022-10-19T04:54:03.084Z,23.07
2022-10-19T04:56:32.417Z,16.33
2022-10-19T04:59:00.636Z,15.83
2022-10-19T05:01:29.552Z,17.57
2022-10-19T05:03:58.665Z,17.13
2022-10-19T05:06:25.705Z,18.10
2022-10-19T05:08:52.618Z,14.73
2022-10-19T05:11:20.498Z,18.47
2022-10-19T05:13:48.129Z,16.37
2022-10-19T05:16:18.067Z,13.87
2022-10-19T05:18:49.474Z,15.90
2022-10-19T05:21:17.506Z,19.50
2022-10-19T05:23:45.213Z,17.50
2022-10-19T05:26:20.406Z,16.93
2022-10-19T05:28:52.026Z,14.87
2022-10-19T05:31:20.486Z,16.60
2022-10-19T05:33:47.765Z,15.20
2022-10-19T05:36:41.213Z,14.03
2022-10-19T05:39:16.650Z,17.40
2022-10-19T05:41:44.988Z,16.20
2022-10-19T05:44:20.861Z,14.27
2022-10-19T05:46:48.940Z,14.57
2022-10-19T05:49:17.248Z,15.97
2022-10-19T05:51:47.333Z,14.20
2022-10-19T05:54:15.074Z,15.47
2022-10-19T05:56:43.025Z,12.97
2022-10-19T05:59:14.391Z,19.63
2022-10-19T06:01:41.327Z,13.73
2022-10-19T06:04:08.485Z,13.90
2022-10-19T06:06:38.078Z,15.50
2022-10-19T06:09:05.067Z,11.77
2022-10-19T06:11:35.312Z,16.13
2022-10-19T06:14:04.926Z,12.40
2022-10-19T06:16:32.440Z,16.03
2022-10-19T06:19:00.185Z,14.13
2022-10-19T06:21:29.626Z,10.83
2022-10-19T06:24:06.744Z,12.17
2022-10-19T06:26:35.176Z,8.53
2022-10-19T06:29:04.354Z,12.77
2022-10-19T06:31:33.540Z,15.07
2022-10-19T06:34:00.530Z,12.27
2022-10-19T06:36:29.937Z,15.30
2022-10-19T06:38:57.148Z,12.77
2022-10-19T06:41:24.339Z,12.83
2022-10-19T06:43:52.782Z,15.70
2022-10-19T06:46:23.194Z,12.43
2022-10-19T06:48:55.113Z,16.67
2022-10-19T06:51:22.504Z,12.53
2022-10-19T06:53:52.972Z,11.83
2022-10-19T06:56:24.530Z,13.97
2022-10-19T06:58:51.463Z,16.13
2022-10-19T07:01:19.490Z,11.83
2022-10-19T07:03:46.416Z,14.27
2022-10-19T07:06:14.150Z,18.63
2022-10-19T07:08:42.206Z,15.83
2022-10-19T07:11:12.123Z,14.20
2022-10-19T07:13:38.961Z,18.07
2022-10-19T07:16:15.914Z,16.63
2022-10-19T07:18:52.866Z,14.23
2022-10-19T07:21:21.684Z,10.90
2022-10-19T07:23:49.193Z,11.67
2022-10-19T07:26:19.548Z,11.30
2022-10-19T07:28:47.709Z,11.80
2022-10-19T07:31:20.727Z,11.07
2022-10-19T07:33:51.821Z,10.73
2022-10-19T07:36:18.638Z,8.77
2022-10-19T07:38:45.473Z,10.37
2022-10-19T07:41:15.138Z,9.00
2022-10-19T07:43:43.401Z,7.50
2022-10-19T07:46:13.791Z,11.10
2022-10-19T07:48:51.189Z,6.60
2022-10-19T07:51:19.249Z,15.27
2022-10-19T07:53:46.814Z,11.83
2022-10-19T07:56:16.513Z,6.37
2022-10-19T07:58:44.081Z,10.13
2022-10-19T08:01:18.684Z,7.87
2022-10-19T08:06:33.268Z,10.20
2022-10-19T08:09:00.345Z,8.23
2022-10-19T08:11:29.612Z,7.23
2022-10-19T08:13:59.311Z,8.57
2022-10-19T08:16:28.118Z,11.07
2022-10-19T08:19:01.303Z,7.93
2022-10-19T08:21:29.646Z,9.50
2022-10-19T08:23:56.572Z,11.30
2022-10-19T08:26:23.443Z,10.80
2022-10-19T08:28:50.329Z,8.70
2022-10-19T08:31:20.162Z,8.43
2022-10-19T08:33:48.717Z,11.23
2022-10-19T08:36:15.609Z,12.43
2022-10-19T08:38:44.774Z,8.37
2022-10-19T08:41:23.597Z,10.27
2022-10-19T08:43:59.905Z,10.00
2022-10-19T08:46:50.055Z,12.93
2022-10-19T08:49:20.549Z,10.17
2022-10-19T08:51:53.748Z,9.27
2022-10-19T08:54:20.632Z,10.63
2022-10-19T08:57:26.321Z,9.30
2022-10-19T08:59:59.426Z,11.40
2022-10-19T09:02:44.495Z,10.93
2022-10-19T09:05:18.685Z,13.27
2022-10-19T09:07:47.849Z,12.97
2022-10-19T09:10:19.007Z,9.60
2022-10-19T09:13:17.295Z,9.90
2022-10-19T09:15:47.447Z,9.13
2022-10-19T09:18:29.484Z,10.33
2022-10-19T09:21:01.479Z,9.03
2022-10-19T09:23:43.375Z,7.97
2022-10-19T09:26:18.939Z,10.10
2022-10-19T09:29:03.722Z,8.93
2022-10-19T09:31:42.787Z,8.30
2022-10-19T09:34:22.066Z,11.27
2022-10-19T09:36:57.852Z,6.47
2022-10-19T09:39:29.300Z,7.53
2022-10-19T09:42:06.445Z,6.77
2022-10-19T09:44:34.242Z,14.03
2022-10-19T09:47:13.731Z,5.33
2022-10-19T09:49:46.637Z,7.67
2022-10-19T09:52:22.535Z,8.17
2022-10-19T09:55:02.586Z,7.00
2022-10-19T09:57:30.395Z,5.83
2022-10-19T09:59:57.621Z,7.77
2022-10-19T10:02:34.213Z,6.77
2022-10-19T10:05:09.979Z,5.23
2022-10-19T10:07:38.774Z,4.77
2022-10-19T10:10:29.740Z,4.63
2022-10-19T10:13:01.756Z,7.53
2022-10-19T10:15:57.798Z,4.73
2022-10-19T10:18:26.804Z,3.30
2022-10-19T10:21:10.728Z,1.90
2022-10-19T10:23:38.165Z,0.70
2022-10-19T10:26:15.878Z,1.20
2022-10-19T10:28:51.449Z,1.10
2022-10-19T10:31:27.651Z,1.03
2022-10-19T10:34:06.343Z,1.07
2022-10-19T10:36:43.956Z,1.47
2022-10-19T10:39:16.640Z,1.23
2022-10-19T10:41:45.412Z,3.50
2022-10-19T10:44:20.265Z,2.90
2022-10-19T10:47:02.486Z,1.77
2022-10-19T10:49:35.629Z,1.97
2022-10-19T10:52:16.767Z,1.77
2022-10-19T10:55:04.426Z,1.73
2022-10-19T10:57:38.769Z,1.70
2022-10-19T11:00:12.350Z,2.20
2022-10-19T11:02:46.512Z,1.53
2022-10-19T11:05:34.723Z,3.00
2022-10-19T11:08:05.762Z,1.60
2022-10-19T11:10:41.725Z,1.40
2022-10-19T11:13:30.281Z,2.53
2022-10-19T11:16:13.710Z,2.43
2022-10-19T11:18:48.534Z,3.90
2022-10-19T11:21:48.116Z,2.50
2022-10-19T11:24:47.870Z,3.80
2022-10-19T11:27:24.437Z,2.60
2022-10-19T11:30:04.645Z,2.07
2022-10-19T11:32:49.385Z,3.80
2022-10-19T11:35:47.841Z,1.43
2022-10-19T11:38:29.575Z,1.33
2022-10-19T11:41:18.172Z,1.87
2022-10-19T11:43:57.443Z,2.40
2022-10-19T11:46:35.011Z,1.93
2022-10-19T11:49:10.821Z,1.50
2022-10-19T11:51:57.575Z,2.40
2022-10-19T11:54:48.509Z,2.03
2022-10-19T11:57:45.283Z,1.83
2022-10-19T12:00:38.184Z,1.67
2022-10-19T12:03:38.918Z,1.23
2022-10-19T12:06:12.754Z,2.00
2022-10-19T12:08:50.095Z,2.73
2022-10-19T12:11:27.867Z,2.33
2022-10-19T12:14:00.810Z,2.20
2022-10-19T12:16:51.861Z,3.07
2022-10-19T12:19:22.808Z,1.90
2022-10-19T12:21:51.821Z,1.93
2022-10-19T12:24:23.339Z,1.03
2022-10-19T12:26:51.915Z,2.57
2022-10-19T12:29:27.851Z,1.83
2022-10-19T12:31:56.583Z,1.73
2022-10-19T12:35:04.717Z,1.07
2022-10-19T12:38:11.598Z,2.37
2022-10-19T12:40:53.695Z,4.07
2022-10-19T12:43:32.144Z,1.67
2022-10-19T12:46:42.339Z,2.03
2022-10-19T12:49:27.225Z,1.07
2022-10-19T12:51:59.099Z,2.87
2022-10-19T12:54:28.256Z,3.13
2022-10-19T12:56:57.735Z,1.03
2022-10-19T12:59:32.043Z,2.83
2022-10-19T13:02:00.736Z,10.07
2022-10-19T13:04:31.261Z,5.10
2022-10-19T13:06:58.104Z,3.57
2022-10-19T13:09:27.347Z,2.17
2022-10-19T13:12:19.348Z,3.30
2022-10-19T13:15:03.162Z,1.33
2022-10-19T13:17:49.300Z,1.60
2022-10-19T13:20:16.357Z,1.53
2022-10-19T13:23:06.019Z,3.57
2022-10-19T13:25:37.354Z,1.33
2022-10-19T13:28:07.354Z,1.10
2022-10-19T13:30:41.726Z,0.83
2022-10-19T13:33:30.412Z,0.60
2022-10-19T13:36:00.578Z,3.27
2022-10-19T13:38:39.487Z,1.80
2022-10-19T13:41:41.059Z,2.33
2022-10-19T13:44:15.280Z,0.97
2022-10-19T13:47:09.120Z,2.33
2022-10-19T13:50:16.806Z,2.07
2022-10-19T13:52:57.334Z,5.63
2022-10-19T13:56:03.115Z,2.43
2022-10-19T13:58:59.350Z,0.87
2022-10-19T14:01:29.215Z,1.57
2022-10-19T14:04:30.757Z,2.13
2022-10-19T14:07:25.126Z,3.57
2022-10-19T14:10:18.195Z,1.33
2022-10-19T14:12:46.757Z,2.77
2022-10-19T14:15:31.900Z,1.73
2022-10-19T14:18:01.290Z,1.30
2022-10-19T14:20:37.664Z,1.80
2022-10-19T14:23:40.321Z,3.03
2022-10-19T14:26:20.603Z,1.10
2022-10-19T14:28:54.246Z,1.40
2022-10-19T14:31:24.505Z,0.90
2022-10-19T14:33:54.334Z,2.13
2022-10-19T14:36:24.982Z,0.80
2022-10-19T14:38:55.539Z,2.50
2022-10-19T14:44:18.786Z,4.30
2022-10-19T14:46:48.970Z,2.83
2022-10-19T14:49:15.960Z,4.07
2022-10-19T14:51:48.983Z,4.63
2022-10-19T14:54:39.319Z,1.57
2022-10-19T14:57:13.864Z,5.33
2022-10-19T14:59:46.414Z,1.43
2022-10-19T15:02:24.375Z,4.53
2022-10-19T15:04:53.386Z,2.43
2022-10-19T15:07:39.752Z,3.90
2022-10-19T15:10:24.211Z,1.47
2022-10-19T15:12:56.995Z,2.03
2022-10-19T15:15:30.344Z,1.47
2022-10-19T15:18:00.131Z,2.23
2022-10-19T15:20:44.133Z,1.07
2022-10-19T15:23:34.191Z,2.63
2022-10-19T15:26:19.349Z,1.67
2022-10-19T15:28:46.783Z,1.77
2022-10-19T15:31:30.165Z,2.70
2022-10-19T15:34:02.013Z,3.10
2022-10-19T15:36:30.761Z,1.50
2022-10-19T15:39:25.206Z,1.97
2022-10-19T15:41:53.142Z,2.43
2022-10-19T15:44:43.719Z,2.07
2022-10-19T15:47:16.362Z,4.13
2022-10-19T15:49:43.275Z,4.23
2022-10-19T15:52:18.361Z,2.77
2022-10-19T15:54:53.990Z,2.93
2022-10-19T15:57:37.507Z,1.60
2022-10-19T16:00:20.668Z,2.93
2022-10-19T16:02:50.748Z,3.23
2022-10-19T16:05:17.940Z,1.70
2022-10-19T16:07:45.332Z,4.23
2022-10-19T16:10:19.377Z,1.80
2022-10-19T16:12:50.204Z,3.00
2022-10-19T16:15:23.338Z,4.57
2022-10-19T16:18:19.255Z,2.23
2022-10-19T16:20:51.971Z,2.77
2022-10-19T16:59:15.432Z,3.63
2022-10-19T17:02:04.359Z,5.40
2022-10-19T17:04:31.197Z,3.40
2022-10-19T17:06:58.029Z,2.73
2022-10-19T17:09:42.131Z,5.47
2022-10-19T17:12:11.538Z,1.77
2022-10-19T17:14:40.136Z,2.67
2022-10-19T17:17:37.976Z,5.07
2022-10-19T17:31:09.278Z,2.67
2022-10-19T17:33:42.368Z,2.60
2022-10-19T17:36:15.804Z,4.63
2022-10-19T17:38:55.101Z,3.63
2022-10-19T17:41:32.037Z,3.33
2022-10-19T17:43:59.050Z,4.10
2022-10-19T17:46:28.875Z,4.17
2022-10-19T18:31:57.096Z,3.83
2022-10-19T18:34:26.707Z,3.03
2022-10-19T18:37:08.193Z,4.50
2022-10-19T18:39:41.190Z,5.37
2022-10-19T18:42:08.265Z,4.13
2022-10-19T18:44:35.076Z,4.03
2022-10-19T18:47:01.883Z,4.17
2022-10-19T18:49:28.755Z,4.63
2022-10-19T18:51:56.154Z,4.83
2022-10-19T18:54:24.998Z,5.90
2022-10-19T18:56:52.040Z,4.77
2022-10-19T18:59:19.117Z,3.13
2022-10-19T19:01:46.129Z,3.00
2022-10-19T19:04:14.174Z,5.27
2022-10-19T19:06:42.201Z,3.80
2022-10-19T19:09:11.635Z,3.30
2022-10-19T19:11:40.959Z,3.33
2022-10-19T19:14:21.126Z,4.07
2022-10-19T19:16:48.824Z,2.77
2022-10-19T19:19:19.339Z,3.50
2022-10-19T19:21:47.435Z,4.60
2022-10-19T19:24:16.793Z,4.17
2022-10-19T19:26:48.482Z,3.07
2022-10-19T19:29:16.027Z,5.73
2022-10-19T19:31:45.887Z,3.80
2022-10-19T19:34:12.796Z,5.20
2022-10-19T19:36:53.162Z,6.33
2022-10-19T19:39:21.129Z,4.23
2022-10-19T19:41:49.511Z,5.53
2022-10-19T19:44:17.990Z,6.43
2022-10-19T19:46:44.840Z,6.87
2022-10-19T19:49:11.998Z,5.17
2022-10-19T19:51:38.908Z,4.33
2022-10-19T19:54:09.543Z,6.23
2022-10-19T19:56:37.627Z,7.87
2022-10-19T19:59:17.166Z,5.67
2022-10-19T20:01:53.287Z,5.17
2022-10-19T20:04:32.631Z,4.53
2022-10-19T20:07:02.497Z,6.27
2022-10-19T20:09:29.920Z,4.43
2022-10-19T20:11:57.573Z,5.83
2022-10-19T20:14:30.248Z,6.47
2022-10-19T20:17:00.037Z,6.43
2022-10-19T20:19:26.971Z,4.40
2022-10-19T20:21:56.284Z,4.90
2022-10-19T20:24:23.211Z,4.20
2022-10-19T20:26:50.185Z,6.13
2022-10-19T20:29:17.292Z,8.57
2022-10-19T20:31:44.295Z,5.13
2022-10-19T20:34:14.115Z,7.13
2022-10-19T20:36:41.596Z,5.80
2022-10-19T20:39:09.078Z,5.00
2022-10-19T20:41:36.148Z,6.10
2022-10-19T20:44:11.157Z,4.13
2022-10-19T20:46:38.136Z,6.00
2022-10-19T20:49:08.218Z,5.93
2022-10-19T20:52:03.227Z,5.20
2022-10-19T20:54:56.496Z,7.70
2022-10-19T20:57:28.803Z,6.57
2022-10-19T21:00:05.005Z,5.00
2022-10-19T21:02:49.708Z,5.63
2022-10-19T21:05:16.677Z,4.40
2022-10-19T21:07:43.760Z,6.77
2022-10-19T21:14:16.636Z,5.20
2022-10-19T21:16:43.569Z,4.53
2022-10-19T21:19:31.405Z,6.83
2022-10-19T21:22:03.566Z,5.60
2022-10-19T21:24:40.405Z,5.23
2022-10-19T21:27:09.322Z,5.23
2022-10-19T21:29:37.225Z,4.40
2022-10-19T21:32:06.423Z,5.50
2022-10-19T21:34:33.881Z,4.50
2022-10-19T21:37:01.093Z,7.00
2022-10-19T21:39:28.041Z,7.77
2022-10-19T21:41:55.231Z,6.83
2022-10-19T21:44:25.738Z,4.17
2022-10-19T21:46:53.100Z,5.17
2022-10-19T21:49:20.216Z,6.37
2022-10-19T21:51:50.644Z,5.03
2022-10-19T21:54:26.711Z,4.97
2022-10-19T21:57:05.302Z,4.87
2022-10-19T21:59:33.089Z,4.37
2022-10-19T22:02:00.117Z,4.93
2022-10-19T22:04:27.395Z,5.27
2022-10-19T22:06:54.319Z,5.10
2022-10-19T22:09:22.204Z,6.40
2022-10-19T22:11:49.254Z,5.33
2022-10-19T22:14:17.163Z,5.73
2022-10-19T22:16:44.422Z,6.90
2022-10-19T22:19:12.133Z,7.70
2022-10-19T22:21:39.169Z,5.03
2022-10-19T22:24:09.109Z,4.23
2022-10-19T22:26:42.843Z,4.90
2022-10-19T22:29:09.999Z,5.90
2022-10-19T22:31:37.612Z,5.80
2022-10-19T22:34:06.908Z,5.73
2022-10-19T22:36:34.377Z,5.03
2022-10-19T22:39:08.392Z,7.37
2022-10-19T22:41:35.341Z,6.70
2022-10-19T22:44:02.696Z,8.53
2022-10-19T22:46:29.748Z,5.67
2022-10-19T22:48:57.671Z,8.07
2022-10-19T22:51:25.135Z,7.17
2022-10-19T22:53:52.019Z,8.67
2022-10-19T22:56:19.126Z,5.53
2022-10-19T22:58:46.195Z,6.70
2022-10-19T23:01:15.190Z,7.73
2022-10-19T23:03:42.653Z,9.53
2022-10-19T23:06:17.986Z,8.80
2022-10-19T23:08:45.762Z,8.77
2022-10-19T23:11:13.067Z,9.67
2022-10-19T23:13:40.178Z,7.77
2022-10-19T23:16:07.922Z,9.07
2022-10-19T23:18:37.132Z,7.70
2022-10-19T23:21:07.527Z,8.77
2022-10-19T23:23:35.957Z,8.00
2022-10-19T23:26:12.507Z,7.23
2022-10-19T23:31:30.065Z,13.00
2022-10-19T23:33:57.614Z,11.50
2022-10-19T23:36:27.829Z,14.27
2022-10-19T23:39:00.234Z,12.83
2022-10-19T23:41:27.660Z,9.53
2022-10-19T23:44:05.275Z,9.30
2022-10-19T23:46:47.981Z,11.10
2022-10-19T23:49:16.154Z,11.57
2022-10-19T23:51:43.082Z,12.60
2022-10-19T23:54:21.965Z,12.40
2022-10-19T23:56:55.060Z,13.33
2022-10-19T23:59:25.541Z,13.07
